Airfield :
LOGIN :

Register | Disclaimer

   EN    FR    IT 

 










Legend :    VFR   Marginal VFR   IFR   Intensive IFR   Very Intensive IFR
Visi :
Ceiling :
>= 8 km
>= 3000ft
5 to 8 km
1000 to 3000 ft
1500m to 5 km
500 to 1000 ft
800 to 1500m
200 to 500 ft
< 800m
< 200 ft
Symbols :   Thunderstorms  Fog  Heavy snow  Heavy precipitations  Wind > 20 kt
SIGMETs :     Misc.  Thunderstorms  Icing  Turbulence  Mountain Waves  Volcanic Ashes






- Airport Elevation : 665 ft
- IATA code : NOC


EIKN - Connaught / Knock- Ireland West

CURRENT METAR :
  • 221330Z 24011KT 1600 VCSH FEW012 FEW021CB SCT039 11/10 Q1005 NOSIG

EXPIRED METARs :
  • 221300Z 23010KT 180V250 9999 VCSH FEW012 SCT017 FEW019CB 13/10 Q1005 NOSIG
  • 221230Z 24014KT 190V270 9000 -SHRA FEW009 BKN016 FEW020CB 11/09 Q1005 NOSIG
  • 221200Z 21008KT 170V270 9999 SCT013 FEW020CB BKN028 12/10 Q1005 NOSIG
  • 221130Z 21012KT 180V250 9999 FEW009 SCT014 FEW020CB 13/11 Q1006 NOSIG
  • 221100Z 21012KT 170V240 9999 -SHRA FEW005 BKN013 FEW022CB 11/10 Q1006 BECMG BKN014

TAF TAF EIKN
Valid from the 22 at 12:00 until the 23 at 12:00 UTC


221100Z 2212/2312 23013KT 9999 SCT014
PROB30
TEMPO 2212/2217 24015G25KT -SHRA FEW018CB
PROB40
TEMPO 2222/2303 -RADZ BKN012
BECMG 2223/2301 33010KT
BECMG 2309/2311 -SHRA SCT018CB
PROB40
TEMPO 2311/2312 SHRA



MET'MAP, your aeronautical weather chart ! - Copyright ORBIFLY December 2007 - Disclaimer

ORBIFLY MET'MAP TEAM :

Programming & Development : Alexandra Zaïnal
Original concept : Baudouin d'Aumeries
Technical & hardware support : Manuel Goepfert
Assistance : Marc-Olivier Méhu

Contact : metmap@orbifly.com




SOURCES & CREDITS :

   NOAA